MAPA DE AEROPUERTO

INFORMACIÓN METAR y TAF

METAR FOR SBRJ
ADDS - METARS form results

(1614 UTC 07 May 2021)
Data provider http://aviationweather.gov/metar/data/
 
METAR text: SBRJ 071600Z 22004KT 170V280 3000 -RA BR FEW005 BKN008 BKN020 21/21 Q1016 RERA
Conditions at: SBRJ (SANTOS DUMONT/RI, BR) observed 1600 UTC 07 May 2021
Temperature: 21.0°C (70°F)
Dewpoint: 21.0°C (70°F) [RH = 100%]
Pressure (altimeter): 30.00 inches Hg (1016.0 mb)
Winds: from the SW (220 degrees) at 5 MPH (4 knots; 2.1 m/s)
Visibility: 1.86 miles (2.99 km)
Ceiling: 800 feet AGL
Clouds: few clouds at 500 feet AGL
broken clouds at 800 feet AGL
broken clouds at 2000 feet AGL
Weather: -RA BR  (light rain, mist)

METAR text: SBRJ 071539Z 21005G15KT 150V300 2000 +RA BR BKN004 OVC010 23/22 Q1016
Conditions at: SBRJ (SANTOS DUMONT/RI, BR) observed 1539 UTC 07 May 2021
Temperature: 23.0°C (73°F)
Dewpoint: 22.0°C (72°F) [RH = 94%]
Pressure (altimeter): 30.00 inches Hg (1016.0 mb)
Winds: from the SSW (210 degrees) at 6 MPH (5 knots; 2.6 m/s)
gusting to 17 MPH (15 knots; 7.7 m/s)
Visibility: 1.24 miles (2.00 km)
Ceiling: 400 feet AGL
Clouds: broken clouds at 400 feet AGL
overcast cloud deck at 1000 feet AGL
Weather: +RA BR  (heavy rain, mist)

Forecast for: SBRJ (SANTOS DUMONT/RI, BR)
Text: TAF SBRJ 071515Z 0718/0806 21015KT 8000 BKN020 TX24/0718Z TN22/0802Z
Forecast period: 1800 UTC 07 May 2021 to 0000 UTC 08 May 2021
Forecast type: FROM: standard forecast or significant change
Winds: from the SSW (210 degrees) at 17 MPH (15 knots; 7.7 m/s)
Visibility: 5 miles (8 km)
Ceiling: 2000 feet AGL
Clouds: broken clouds at 2000 feet AGL
Weather: no significant weather forecast for this period
Text: PROB30 0718/0724 24015G25KT 4000 RA BKN012
Forecast period: 1800 UTC 07 May 2021 to 0000 UTC 08 May 2021
Forecast type: PROBABLE: 30 percent likelihood of the following during this time
Winds: from the WSW (240 degrees) at 17 MPH (15 knots; 7.7 m/s)
gusting to 29 MPH (25 knots; 12.9 m/s)
Visibility: 2.49 miles (4.01 km)
Ceiling: 1200 feet AGL
Clouds: broken clouds at 1200 feet AGL
Weather: RA  (moderate rain)
Text: BECMG 0800/0802 21010KT 7000 BKN012 RMK PGS
Forecast period: 0000 to 0600 UTC 08 May 2021
Forecast type: BECOMING: Conditions expected to become as follows by 0200 UTC 08 May 2021
Winds: from the SSW (210 degrees) at 12 MPH (10 knots; 5.1 m/s)
Visibility: 4 miles (7 km)
Ceiling: 1200 feet AGL
Clouds: broken clouds at 1200 feet AGL
Weather: no significant weather forecast for this period